Time;durP1;ratioP1;P1;durP2;ratioP2;P2;SDS_P1;SDS_P2;PMS_P1;PMS_P2;Temp;Humidity;BMP_temperature;BMP_pressure;BME280_temperature;BME280_humidity;BME280_pressure;Samples;Min_cycle;Max_cycle;Signal;HPM_P1;HPM_P2
2020/12/12 00:00:25;;;;;;;;;7.00;7.00;;;;;;;;5030660;28;10178;-82
2020/12/12 00:02:52;;;;;;;;;6.75;6.25;;;;;;;;5044032;28;10232;-81
2020/12/12 00:05:19;;;;;;;;;10.75;7.75;;;;;;;;5047988;28;10215;-82
2020/12/12 00:07:46;;;;;;;;;17.50;10.50;;;;;;;;5046459;28;10402;-82
2020/12/12 00:10:13;;;;;;;;;8.75;8.75;;;;;;;;5046960;28;10346;-83
2020/12/12 00:12:41;;;;;;;;;21.00;21.00;;;;;;;;5043740;28;10406;-83
2020/12/12 00:15:08;;;;;;;;;7.50;7.50;;;;;;;;5044702;28;10837;-81
2020/12/12 00:17:35;;;;;;;;;8.50;8.50;;;;;;;;5025131;28;10324;-81
2020/12/12 00:20:02;;;;;;;;;9.00;6.00;;;;;;;;5046107;28;10338;-81
2020/12/12 00:22:30;;;;;;;;;9.25;5.75;;;;;;;;5043032;28;10199;-81
2020/12/12 00:24:57;;;;;;;;;8.00;8.00;;;;;;;;5043375;28;11111;-79
2020/12/12 00:27:24;;;;;;;;;6.25;6.25;;;;;;;;5042943;28;11092;-81
2020/12/12 00:29:50;;;;;;;;;9.75;6.75;;;;;;;;5048717;28;11054;-79
2020/12/12 00:32:17;;;;;;;;;7.25;6.25;;;;;;;;5054108;28;10999;-80
2020/12/12 00:34:44;;;;;;;;;7.25;7.00;;;;;;;;5046624;28;10329;-81
2020/12/12 00:37:11;;;;;;;;;7.50;3.50;;;;;;;;5048888;28;10280;-79
2020/12/12 00:39:38;;;;;;;;;9.00;7.00;;;;;;;;5042711;28;10164;-80
2020/12/12 00:42:06;;;;;;;;;9.50;7.50;;;;;;;;5042324;28;10410;-79
2020/12/12 00:44:33;;;;;;;;;10.00;6.25;;;;;;;;5044253;28;10316;-80
2020/12/12 00:47:03;;;;;;;;;7.00;5.50;;;;;;;;5044346;28;10120;-78
2020/12/12 00:49:29;;;;;;;;;4.25;3.25;;;;;;;;5048945;28;10309;-81
2020/12/12 00:51:56;;;;;;;;;6.00;6.00;;;;;;;;5042599;28;10202;-81
2020/12/12 00:54:23;;;;;;;;;6.50;5.75;;;;;;;;5043202;28;10927;-81
2020/12/12 00:56:51;;;;;;;;;7.00;7.00;;;;;;;;5044181;28;10278;-81
2020/12/12 00:59:18;;;;;;;;;6.00;6.00;;;;;;;;5042370;28;10337;-82
2020/12/12 01:01:46;;;;;;;;;5.75;5.75;;;;;;;;5042945;28;10261;-81
2020/12/12 01:04:13;;;;;;;;;6.75;5.00;;;;;;;;5042597;28;10305;-77
2020/12/12 01:06:40;;;;;;;;;7.00;7.00;;;;;;;;5044602;28;10286;-80
2020/12/12 01:09:07;;;;;;;;;9.00;7.50;;;;;;;;5045880;28;10225;-81
2020/12/12 01:11:34;;;;;;;;;10.25;6.25;;;;;;;;5044614;28;10384;-80
2020/12/12 01:14:02;;;;;;;;;15.25;12.50;;;;;;;;5042272;28;10224;-80
2020/12/12 01:16:29;;;;;;;;;5.75;5.75;;;;;;;;5042918;28;10599;-80
2020/12/12 01:18:55;;;;;;;;;8.00;6.25;;;;;;;;5043971;28;10178;-78
2020/12/12 01:21:22;;;;;;;;;8.25;5.50;;;;;;;;5042138;28;10328;-80
2020/12/12 01:23:49;;;;;;;;;6.25;6.25;;;;;;;;5043709;28;10191;-79
2020/12/12 01:26:16;;;;;;;;;8.25;6.00;;;;;;;;5041867;28;10124;-79
2020/12/12 01:28:43;;;;;;;;;6.25;6.00;;;;;;;;5043161;28;10184;-81
2020/12/12 01:31:12;;;;;;;;;11.00;7.00;;;;;;;;5051058;28;10023;-82
2020/12/12 01:33:40;;;;;;;;;8.00;7.00;;;;;;;;5042175;28;10124;-80
2020/12/12 01:36:07;;;;;;;;;10.75;8.50;;;;;;;;5042538;28;10233;-80
2020/12/12 01:38:34;;;;;;;;;9.50;6.50;;;;;;;;5043470;28;10920;-82
2020/12/12 01:41:01;;;;;;;;;10.75;6.75;;;;;;;;5043251;28;10031;-81
2020/12/12 01:43:28;;;;;;;;;9.00;7.00;;;;;;;;5041731;28;10070;-82
2020/12/12 01:45:55;;;;;;;;;6.50;6.50;;;;;;;;5042622;28;10134;-81
2020/12/12 01:48:23;;;;;;;;;4.25;4.25;;;;;;;;5041808;28;10239;-82
2020/12/12 01:50:51;;;;;;;;;6.75;5.25;;;;;;;;5042350;28;10877;-82
2020/12/12 01:53:19;;;;;;;;;7.25;7.00;;;;;;;;5043450;28;10065;-82
2020/12/12 01:55:48;;;;;;;;;6.00;6.00;;;;;;;;5041941;28;10180;-81
2020/12/12 01:58:15;;;;;;;;;5.75;5.75;;;;;;;;5042777;28;10039;-84
2020/12/12 02:00:42;;;;;;;;;8.50;6.25;;;;;;;;5037467;28;10140;-79
2020/12/12 02:03:11;;;;;;;;;11.00;6.00;;;;;;;;5042489;28;10936;-79
2020/12/12 02:05:39;;;;;;;;;6.00;5.50;;;;;;;;5042273;28;10238;-80
2020/12/12 02:08:08;;;;;;;;;7.25;6.00;;;;;;;;5041731;28;10236;-80
2020/12/12 02:10:35;;;;;;;;;7.00;5.50;;;;;;;;5043271;28;10289;-80
2020/12/12 02:13:04;;;;;;;;;7.00;7.00;;;;;;;;5040595;28;10324;-81
2020/12/12 02:15:30;;;;;;;;;9.00;9.00;;;;;;;;5043077;28;10432;-81
2020/12/12 02:17:58;;;;;;;;;22.00;19.75;;;;;;;;5039625;28;10424;-80
2020/12/12 02:20:25;;;;;;;;;6.75;6.75;;;;;;;;5043441;28;10667;-82
2020/12/12 02:22:52;;;;;;;;;5.75;5.25;;;;;;;;5042484;28;10317;-83
2020/12/12 02:25:20;;;;;;;;;6.75;5.75;;;;;;;;5043663;28;10190;-82
2020/12/12 02:27:49;;;;;;;;;4.75;4.75;;;;;;;;5041592;28;10185;-82
2020/12/12 02:30:16;;;;;;;;;6.50;5.00;;;;;;;;5045328;28;10190;-84
2020/12/12 02:32:43;;;;;;;;;6.75;5.00;;;;;;;;5042293;28;10337;-83
2020/12/12 02:35:10;;;;;;;;;8.00;6.00;;;;;;;;5040133;28;10246;-82
2020/12/12 02:37:37;;;;;;;;;9.75;7.00;;;;;;;;5043679;28;10381;-83
2020/12/12 02:40:05;;;;;;;;;6.75;6.75;;;;;;;;5043404;28;10329;-81
2020/12/12 02:42:32;;;;;;;;;7.50;6.75;;;;;;;;5042838;28;10347;-82
2020/12/12 02:44:59;;;;;;;;;6.00;6.00;;;;;;;;5039362;28;10242;-83
2020/12/12 02:47:26;;;;;;;;;7.50;6.25;;;;;;;;5041697;28;10396;-83
2020/12/12 02:50:09;;;;;;;;;9.25;7.25;;;;;;;;5042159;28;10333;-83
2020/12/12 02:52:37;;;;;;;;;7.00;6.00;;;;;;;;5042801;28;10342;-82
2020/12/12 02:55:06;;;;;;;;;13.50;13.50;;;;;;;;5041397;28;10482;-82
2020/12/12 02:57:33;;;;;;;;;7.00;6.00;;;;;;;;5039923;28;10704;-79
2020/12/12 03:00:00;;;;;;;;;6.00;4.75;;;;;;;;5043337;28;10413;-81
2020/12/12 03:02:27;;;;;;;;;6.00;3.00;;;;;;;;5041108;28;10186;-82
2020/12/12 03:04:54;;;;;;;;;6.00;6.00;;;;;;;;5042417;28;10372;-83
2020/12/12 03:07:21;;;;;;;;;10.75;5.75;;;;;;;;5040681;28;10264;-83
2020/12/12 03:09:48;;;;;;;;;5.00;5.00;;;;;;;;5036340;28;10293;-81
2020/12/12 03:12:15;;;;;;;;;6.75;6.75;;;;;;;;5044123;28;10276;-83
2020/12/12 03:14:42;;;;;;;;;5.00;5.00;;;;;;;;5044377;28;10409;-79
2020/12/12 03:17:10;;;;;;;;;5.00;5.00;;;;;;;;5045223;28;10373;-82
2020/12/12 03:19:37;;;;;;;;;7.50;5.75;;;;;;;;5045188;28;11105;-82
2020/12/12 03:22:04;;;;;;;;;7.00;5.50;;;;;;;;5045493;28;10414;-80
2020/12/12 03:24:31;;;;;;;;;7.25;6.50;;;;;;;;5045368;28;10184;-81
2020/12/12 03:26:58;;;;;;;;;5.50;5.50;;;;;;;;5044200;28;10250;-81
2020/12/12 03:29:26;;;;;;;;;7.75;6.00;;;;;;;;5043327;28;10331;-82
2020/12/12 03:31:52;;;;;;;;;5.75;5.75;;;;;;;;5048018;28;10210;-81
2020/12/12 03:34:20;;;;;;;;;7.25;5.50;;;;;;;;5045873;28;10364;-78
2020/12/12 03:36:47;;;;;;;;;6.00;6.00;;;;;;;;5043966;28;10278;-81
2020/12/12 03:39:14;;;;;;;;;11.25;10.00;;;;;;;;5045365;28;10409;-81
2020/12/12 03:41:40;;;;;;;;;3.00;3.00;;;;;;;;5045083;28;10454;-80
2020/12/12 03:44:08;;;;;;;;;5.75;5.75;;;;;;;;5044171;28;10465;-81
2020/12/12 03:46:35;;;;;;;;;9.00;4.50;;;;;;;;5044497;28;10348;-82
2020/12/12 03:49:02;;;;;;;;;10.00;10.00;;;;;;;;5043730;28;10405;-82
2020/12/12 03:51:29;;;;;;;;;9.00;8.00;;;;;;;;5044943;28;10569;-82
2020/12/12 03:53:56;;;;;;;;;9.25;7.50;;;;;;;;5041665;28;10455;-82
2020/12/12 03:56:22;;;;;;;;;7.00;7.00;;;;;;;;5045005;28;10495;-81
2020/12/12 03:58:49;;;;;;;;;10.75;8.50;;;;;;;;5043322;28;10477;-84
2020/12/12 04:01:16;;;;;;;;;10.25;10.25;;;;;;;;5042275;28;10407;-84
2020/12/12 04:03:44;;;;;;;;;8.00;8.00;;;;;;;;5044731;28;10544;-83
2020/12/12 04:06:11;;;;;;;;;11.25;7.25;;;;;;;;5044079;28;10568;-80
2020/12/12 04:08:37;;;;;;;;;13.00;8.00;;;;;;;;5045438;28;10439;-84
2020/12/12 04:11:05;;;;;;;;;12.50;10.75;;;;;;;;5045063;28;10430;-80
2020/12/12 04:13:32;;;;;;;;;6.50;6.50;;;;;;;;5044453;28;10510;-84
2020/12/12 04:15:58;;;;;;;;;10.75;9.50;;;;;;;;5044154;28;11342;-83
2020/12/12 04:18:25;;;;;;;;;13.25;11.00;;;;;;;;5044585;28;10538;-82
2020/12/12 04:20:53;;;;;;;;;14.50;9.00;;;;;;;;5045644;28;10477;-79
2020/12/12 04:23:19;;;;;;;;;15.50;8.75;;;;;;;;5042850;28;10707;-81
2020/12/12 04:25:46;;;;;;;;;12.00;10.25;;;;;;;;5041136;28;10669;-82
2020/12/12 04:28:13;;;;;;;;;12.50;9.50;;;;;;;;5042686;28;10665;-81
2020/12/12 04:30:40;;;;;;;;;11.75;7.75;;;;;;;;5044464;28;10444;-82
2020/12/12 04:33:07;;;;;;;;;11.25;8.00;;;;;;;;5043127;28;10590;-80
2020/12/12 04:35:34;;;;;;;;;17.00;11.00;;;;;;;;5043677;28;10487;-82
2020/12/12 04:38:01;;;;;;;;;8.00;8.00;;;;;;;;5043920;28;10549;-82
2020/12/12 04:40:30;;;;;;;;;7.50;7.50;;;;;;;;5044633;28;10415;-81
2020/12/12 04:42:57;;;;;;;;;10.25;7.00;;;;;;;;5043292;28;10403;-82
2020/12/12 04:45:24;;;;;;;;;10.00;7.75;;;;;;;;5044331;28;10409;-82
2020/12/12 04:47:51;;;;;;;;;10.75;7.00;;;;;;;;5044277;28;10385;-82
2020/12/12 04:50:18;;;;;;;;;7.25;7.25;;;;;;;;5043504;28;10415;-81
2020/12/12 04:52:45;;;;;;;;;11.00;8.00;;;;;;;;5042955;28;10449;-82
2020/12/12 04:55:12;;;;;;;;;11.50;7.25;;;;;;;;5044207;28;10350;-82
2020/12/12 04:57:40;;;;;;;;;10.25;6.75;;;;;;;;5042827;28;10361;-82
2020/12/12 05:00:09;;;;;;;;;10.25;8.00;;;;;;;;5044469;28;10249;-80
2020/12/12 05:02:36;;;;;;;;;7.00;7.00;;;;;;;;5039581;28;10367;-81
2020/12/12 05:05:04;;;;;;;;;6.50;6.00;;;;;;;;5039654;28;10428;-81
2020/12/12 05:07:31;;;;;;;;;10.25;6.00;;;;;;;;5040716;28;10354;-79
2020/12/12 05:09:58;;;;;;;;;6.00;6.00;;;;;;;;5044184;28;10372;-81
2020/12/12 05:12:25;;;;;;;;;8.50;7.00;;;;;;;;5038029;28;10254;-82
2020/12/12 05:14:53;;;;;;;;;6.75;6.00;;;;;;;;5036390;28;10404;-82
2020/12/12 05:17:21;;;;;;;;;7.00;7.00;;;;;;;;5042914;28;10392;-83
2020/12/12 05:19:49;;;;;;;;;8.75;7.00;;;;;;;;5041753;28;10998;-82
2020/12/12 05:22:16;;;;;;;;;8.75;6.25;;;;;;;;5042817;28;10255;-82
2020/12/12 05:24:43;;;;;;;;;6.00;6.00;;;;;;;;5041207;28;10335;-79
2020/12/12 05:27:10;;;;;;;;;7.25;6.25;;;;;;;;5041835;28;10327;-81
2020/12/12 05:29:38;;;;;;;;;6.00;6.00;;;;;;;;5041666;28;10339;-80
2020/12/12 05:32:05;;;;;;;;;6.00;3.25;;;;;;;;5041274;28;10371;-81
2020/12/12 05:34:32;;;;;;;;;7.50;6.00;;;;;;;;5042149;28;10328;-81
2020/12/12 05:36:59;;;;;;;;;6.50;5.50;;;;;;;;5039365;28;10396;-81
2020/12/12 05:39:26;;;;;;;;;6.00;6.00;;;;;;;;5041002;28;10346;-83
2020/12/12 05:41:53;;;;;;;;;10.75;8.50;;;;;;;;5041350;28;10318;-81
2020/12/12 05:44:20;;;;;;;;;11.00;6.75;;;;;;;;5042538;28;10412;-81
2020/12/12 05:46:48;;;;;;;;;7.75;7.75;;;;;;;;5040001;28;10348;-82
2020/12/12 05:49:16;;;;;;;;;5.75;3.25;;;;;;;;5041745;28;10325;-81
2020/12/12 05:51:43;;;;;;;;;5.75;2.00;;;;;;;;5042136;28;10353;-81
2020/12/12 05:54:11;;;;;;;;;6.25;5.00;;;;;;;;5040847;28;11140;-82
2020/12/12 05:56:37;;;;;;;;;11.50;7.00;;;;;;;;5042056;28;10334;-81
2020/12/12 05:59:04;;;;;;;;;9.00;6.75;;;;;;;;5041759;28;10275;-81
2020/12/12 06:01:32;;;;;;;;;6.25;6.00;;;;;;;;5041926;28;10074;-80
2020/12/12 06:04:04;;;;;;;;;7.00;5.25;;;;;;;;5040715;28;10116;-81
2020/12/12 06:06:31;;;;;;;;;7.25;5.75;;;;;;;;5041635;28;10122;-81
2020/12/12 06:09:06;;;;;;;;;5.75;4.25;;;;;;;;5041359;28;10108;-83
2020/12/12 06:11:34;;;;;;;;;6.50;6.00;;;;;;;;5038735;28;10140;-81
2020/12/12 06:14:03;;;;;;;;;12.00;6.00;;;;;;;;5041973;28;10125;-83
2020/12/12 06:16:30;;;;;;;;;5.00;5.00;;;;;;;;5040691;28;10198;-83
2020/12/12 06:19:10;;;;;;;;;7.25;6.25;;;;;;;;5042498;28;10250;-82
2020/12/12 06:21:39;;;;;;;;;6.25;5.25;;;;;;;;5041898;28;10359;-81
2020/12/12 06:24:07;;;;;;;;;4.25;4.25;;;;;;;;5042304;28;10117;-81
2020/12/12 06:26:51;;;;;;;;;5.00;5.00;;;;;;;;5035530;28;10117;-83
2020/12/12 06:29:19;;;;;;;;;7.50;6.00;;;;;;;;5041661;28;10033;-81
2020/12/12 06:31:47;;;;;;;;;6.25;6.25;;;;;;;;5048017;28;10044;-82
2020/12/12 06:34:14;;;;;;;;;9.75;9.75;;;;;;;;5040341;28;10137;-80
2020/12/12 06:36:48;;;;;;;;;3.00;3.00;;;;;;;;5042050;28;10116;-81
2020/12/12 06:39:20;;;;;;;;;10.00;6.00;;;;;;;;5041287;28;10112;-80
2020/12/12 06:41:49;;;;;;;;;6.50;6.25;;;;;;;;5040138;28;10185;-83
2020/12/12 06:44:35;;;;;;;;;2.50;2.50;;;;;;;;5039639;28;10104;-82
2020/12/12 06:47:02;;;;;;;;;3.75;3.50;;;;;;;;5043870;28;10045;-79
2020/12/12 06:49:30;;;;;;;;;4.75;4.75;;;;;;;;5046326;28;10238;-82
2020/12/12 06:51:57;;;;;;;;;11.00;7.75;;;;;;;;5044295;28;10112;-80
2020/12/12 06:54:24;;;;;;;;;7.75;7.00;;;;;;;;5038934;28;10267;-83
2020/12/12 06:56:51;;;;;;;;;6.00;6.00;;;;;;;;5047330;28;10261;-75
2020/12/12 06:59:35;;;;;;;;;4.50;4.50;;;;;;;;5047214;28;10178;-70
2020/12/12 07:02:02;;;;;;;;;8.00;6.00;;;;;;;;5043379;28;10233;-71
2020/12/12 07:04:32;;;;;;;;;14.00;6.25;;;;;;;;5044766;28;11051;-71
2020/12/12 07:07:07;;;;;;;;;7.00;5.75;;;;;;;;5044930;28;10173;-71
2020/12/12 07:09:35;;;;;;;;;9.50;5.00;;;;;;;;5044481;28;10194;-71
2020/12/12 07:12:02;;;;;;;;;8.50;5.50;;;;;;;;5043227;28;10194;-70
2020/12/12 07:14:29;;;;;;;;;10.75;6.25;;;;;;;;5046109;28;10871;-71
2020/12/12 07:16:57;;;;;;;;;15.00;5.25;;;;;;;;5044166;28;10355;-72
2020/12/12 07:19:38;;;;;;;;;4.50;4.50;;;;;;;;5045236;28;10178;-71
2020/12/12 07:22:06;;;;;;;;;4.00;4.00;;;;;;;;5043411;28;10103;-71
2020/12/12 07:24:34;;;;;;;;;5.50;5.50;;;;;;;;5046124;28;11131;-70
2020/12/12 07:27:02;;;;;;;;;7.50;6.00;;;;;;;;5043681;28;10360;-71
2020/12/12 07:29:30;;;;;;;;;5.00;5.00;;;;;;;;5045650;28;10371;-71
2020/12/12 07:31:57;;;;;;;;;6.00;6.00;;;;;;;;5043384;28;10277;-70
2020/12/12 07:34:25;;;;;;;;;4.25;4.25;;;;;;;;5043244;28;10204;-72
2020/12/12 07:37:00;;;;;;;;;8.00;4.50;;;;;;;;5044769;28;10240;-71
2020/12/12 07:39:32;;;;;;;;;6.00;5.50;;;;;;;;5042402;28;10274;-72
2020/12/12 07:41:59;;;;;;;;;5.75;3.00;;;;;;;;5043257;28;10341;-72
2020/12/12 07:44:28;;;;;;;;;4.75;4.75;;;;;;;;5043685;28;10174;-71
2020/12/12 07:46:57;;;;;;;;;4.75;3.25;;;;;;;;5043609;28;10264;-72
2020/12/12 07:49:23;;;;;;;;;5.00;2.75;;;;;;;;5044169;28;10184;-71
2020/12/12 07:52:04;;;;;;;;;5.75;5.75;;;;;;;;5042701;28;10271;-71
2020/12/12 07:54:37;;;;;;;;;8.00;5.00;;;;;;;;5042556;28;10139;-71
2020/12/12 07:57:06;;;;;;;;;5.00;5.00;;;;;;;;5042328;28;10307;-71
2020/12/12 07:59:33;;;;;;;;;6.00;4.00;;;;;;;;5045010;28;10204;-71
2020/12/12 08:02:05;;;;;;;;;8.00;7.00;;;;;;;;5039998;28;10053;-71
2020/12/12 08:04:32;;;;;;;;;5.00;5.00;;;;;;;;5040401;28;10455;-71
2020/12/12 08:07:09;;;;;;;;;9.75;6.00;;;;;;;;5041443;28;10222;-72
2020/12/12 08:09:36;;;;;;;;;6.00;6.00;;;;;;;;5044340;28;10255;-71
2020/12/12 08:12:04;;;;;;;;;5.75;3.00;;;;;;;;5044530;28;10179;-72
2020/12/12 08:14:42;;;;;;;;;6.00;3.50;;;;;;;;5042643;28;10434;-71
2020/12/12 08:17:11;;;;;;;;;5.00;5.00;;;;;;;;5036796;28;10283;-72
2020/12/12 08:19:46;;;;;;;;;7.50;3.50;;;;;;;;5042200;28;10188;-72
2020/12/12 08:22:18;;;;;;;;;7.00;5.00;;;;;;;;5042659;28;10209;-72
2020/12/12 08:24:46;;;;;;;;;3.75;3.25;;;;;;;;5044383;28;10311;-72
2020/12/12 08:27:14;;;;;;;;;2.00;2.00;;;;;;;;5041138;28;9946;-72
2020/12/12 08:29:43;;;;;;;;;7.00;5.00;;;;;;;;5042117;28;10120;-73
2020/12/12 08:32:25;;;;;;;;;4.50;4.50;;;;;;;;5040285;28;10238;-73
2020/12/12 08:34:52;;;;;;;;;12.75;6.00;;;;;;;;5043485;28;9948;-72
2020/12/12 08:37:19;;;;;;;;;8.50;7.75;;;;;;;;5043796;28;9943;-72
2020/12/12 08:39:46;;;;;;;;;12.50;7.50;;;;;;;;5039244;28;9924;-72
2020/12/12 08:42:23;;;;;;;;;8.00;6.50;;;;;;;;5043717;28;10020;-72
2020/12/12 08:44:50;;;;;;;;;6.25;6.25;;;;;;;;5042751;28;10028;-72
2020/12/12 08:47:16;;;;;;;;;13.00;7.75;;;;;;;;5042741;28;10108;-72
2020/12/12 08:49:48;;;;;;;;;8.75;6.50;;;;;;;;5040765;28;11359;-75
2020/12/12 08:52:26;;;;;;;;;6.50;6.50;;;;;;;;5042860;28;10113;-76
2020/12/12 08:54:58;;;;;;;;;11.75;11.75;;;;;;;;5038293;28;10191;-74
2020/12/12 08:57:25;;;;;;;;;6.50;6.50;;;;;;;;5042388;28;10121;-72
2020/12/12 08:59:59;;;;;;;;;7.50;7.00;;;;;;;;5043607;28;10027;-72
2020/12/12 09:02:26;;;;;;;;;7.00;7.00;;;;;;;;5042154;28;10824;-73
2020/12/12 09:05:09;;;;;;;;;9.50;8.25;;;;;;;;5043326;28;9955;-72
2020/12/12 09:07:37;;;;;;;;;6.50;6.00;;;;;;;;5042631;28;10873;-72
2020/12/12 09:10:08;;;;;;;;;10.25;8.00;;;;;;;;5041758;28;10189;-73
2020/12/12 09:12:44;;;;;;;;;7.50;7.50;;;;;;;;5044453;28;10173;-72
2020/12/12 09:15:11;;;;;;;;;10.25;8.00;;;;;;;;5042179;28;10181;-72
2020/12/12 09:17:40;;;;;;;;;11.00;8.00;;;;;;;;5043169;28;10034;-73
2020/12/12 09:20:08;;;;;;;;;11.00;7.00;;;;;;;;5042579;28;10211;-71
2020/12/12 09:22:36;;;;;;;;;8.25;8.25;;;;;;;;5041048;28;10878;-71
2020/12/12 09:25:04;;;;;;;;;13.00;11.00;;;;;;;;5042701;28;10316;-72
2020/12/12 09:27:31;;;;;;;;;11.75;11.75;;;;;;;;5042532;28;10185;-72
2020/12/12 09:29:57;;;;;;;;;11.50;9.25;;;;;;;;5043513;28;11107;-72
2020/12/12 09:32:24;;;;;;;;;8.25;7.75;;;;;;;;5041790;28;10877;-72
2020/12/12 09:34:51;;;;;;;;;11.50;10.75;;;;;;;;5043808;28;10296;-72
2020/12/12 09:37:18;;;;;;;;;13.00;11.25;;;;;;;;5042801;28;10330;-72
2020/12/12 09:39:46;;;;;;;;;9.00;8.00;;;;;;;;5060782;28;10208;-73
2020/12/12 09:42:12;;;;;;;;;15.50;11.75;;;;;;;;5050868;28;10227;-72
2020/12/12 09:44:39;;;;;;;;;17.00;14.75;;;;;;;;5046042;28;10113;-72
2020/12/12 09:47:06;;;;;;;;;16.25;14.00;;;;;;;;5044103;28;10268;-72
2020/12/12 09:49:33;;;;;;;;;12.50;9.00;;;;;;;;5042390;28;10133;-72
2020/12/12 09:52:00;;;;;;;;;15.25;12.00;;;;;;;;5043771;28;10215;-72
2020/12/12 09:54:27;;;;;;;;;14.75;11.75;;;;;;;;5042387;28;10348;-72
2020/12/12 09:56:54;;;;;;;;;16.00;12.50;;;;;;;;5042423;28;10205;-72
2020/12/12 09:59:21;;;;;;;;;11.75;9.50;;;;;;;;5042502;28;10093;-72
2020/12/12 10:01:48;;;;;;;;;9.25;7.75;;;;;;;;5041890;28;10031;-72
2020/12/12 10:04:15;;;;;;;;;9.50;9.50;;;;;;;;5044489;28;10038;-72
2020/12/12 10:06:42;;;;;;;;;11.25;8.25;;;;;;;;5043309;28;9974;-72
2020/12/12 10:09:09;;;;;;;;;9.25;8.25;;;;;;;;5044105;28;10036;-72
2020/12/12 10:11:36;;;;;;;;;5.00;5.00;;;;;;;;5042937;28;10083;-72
2020/12/12 10:14:03;;;;;;;;;8.50;8.50;;;;;;;;5044664;28;9939;-72
2020/12/12 10:16:30;;;;;;;;;10.25;8.50;;;;;;;;5042354;28;9925;-72
2020/12/12 10:18:57;;;;;;;;;5.50;5.50;;;;;;;;5044759;28;10063;-72
2020/12/12 10:21:24;;;;;;;;;12.25;11.00;;;;;;;;5047846;28;10040;-72
2020/12/12 10:23:51;;;;;;;;;11.25;10.75;;;;;;;;5046698;28;10182;-72
2020/12/12 10:26:18;;;;;;;;;9.50;8.25;;;;;;;;5046785;28;10030;-72
2020/12/12 10:28:45;;;;;;;;;18.00;14.00;;;;;;;;5044367;28;9989;-72
2020/12/12 10:31:12;;;;;;;;;12.00;12.00;;;;;;;;5045644;28;9852;-72
2020/12/12 10:33:39;;;;;;;;;14.25;14.00;;;;;;;;5045513;28;9922;-72
2020/12/12 10:36:06;;;;;;;;;17.00;17.00;;;;;;;;5041174;28;9908;-72
2020/12/12 10:38:34;;;;;;;;;18.75;13.75;;;;;;;;5044489;28;9892;-71
2020/12/12 10:41:10;;;;;;;;;13.50;13.50;;;;;;;;5044343;28;10159;-72
2020/12/12 10:43:37;;;;;;;;;19.00;17.50;;;;;;;;5046815;28;9955;-72
2020/12/12 10:46:03;;;;;;;;;16.75;16.50;;;;;;;;5045595;28;10116;-72
2020/12/12 10:48:32;;;;;;;;;19.75;19.75;;;;;;;;5047083;28;10155;-72
2020/12/12 10:50:59;;;;;;;;;24.75;19.75;;;;;;;;5045317;28;10072;-71
2020/12/12 10:53:25;;;;;;;;;26.00;24.50;;;;;;;;5047045;28;10076;-72
2020/12/12 10:55:52;;;;;;;;;26.50;20.50;;;;;;;;5046717;28;10246;-72
2020/12/12 10:58:19;;;;;;;;;24.25;22.50;;;;;;;;5045764;28;10238;-71
2020/12/12 11:00:49;;;;;;;;;26.25;23.25;;;;;;;;5041011;28;10751;-73
2020/12/12 11:03:16;;;;;;;;;29.50;29.00;;;;;;;;5041952;28;10219;-72
2020/12/12 11:05:45;;;;;;;;;31.00;30.00;;;;;;;;5045837;28;10161;-72
2020/12/12 11:08:12;;;;;;;;;30.00;27.50;;;;;;;;5044701;28;10134;-73
2020/12/12 11:10:39;;;;;;;;;15.00;15.00;;;;;;;;5044483;28;10845;-74
2020/12/12 11:13:06;;;;;;;;;14.00;14.00;;;;;;;;5041233;28;9731;-73
2020/12/12 11:15:32;;;;;;;;;10.25;10.25;;;;;;;;5045233;28;9592;-72
2020/12/12 11:18:00;;;;;;;;;10.00;8.50;;;;;;;;5042825;28;9498;-74
2020/12/12 11:20:27;;;;;;;;;8.50;8.25;;;;;;;;5043914;28;9518;-73
2020/12/12 11:22:55;;;;;;;;;9.25;9.25;;;;;;;;5046607;28;9444;-74
2020/12/12 11:25:22;;;;;;;;;13.00;12.25;;;;;;;;5043955;28;9490;-74
2020/12/12 11:27:49;;;;;;;;;15.25;15.00;;;;;;;;5045116;28;10423;-73
2020/12/12 11:30:18;;;;;;;;;14.25;14.25;;;;;;;;5042242;28;9756;-73
2020/12/12 11:32:44;;;;;;;;;9.50;9.50;;;;;;;;5042382;28;9559;-73
2020/12/12 11:35:15;;;;;;;;;9.33;9.33;;;;;;;;5045095;28;9673;-74
2020/12/12 11:37:55;;;;;;;;;10.00;8.00;;;;;;;;5044056;28;9336;-73
2020/12/12 11:40:29;;;;;;;;;8.67;8.00;;;;;;;;5045490;28;9337;-74
2020/12/12 11:45:56;;;;;;;;;9.33;8.00;;;;;;;;5044790;28;9983;-74
2020/12/12 11:48:23;;;;;;;;;5.33;5.33;;;;;;;;5044822;28;9170;-74
2020/12/12 11:50:50;;;;;;;;;5.00;5.00;;;;;;;;5038803;28;9270;-74
2020/12/12 11:53:17;;;;;;;;;4.67;3.67;;;;;;;;5045046;28;9218;-73
2020/12/12 11:55:44;;;;;;;;;5.33;3.33;;;;;;;;5039382;28;9195;-74
2020/12/12 11:58:11;;;;;;;;;3.67;2.67;;;;;;;;5041511;28;9100;-76
2020/12/12 12:00:43;;;;;;;;;7.33;7.00;;;;;;;;5042480;28;9229;-73
2020/12/12 12:03:11;;;;;;;;;7.00;4.00;;;;;;;;5046780;28;9426;-75
2020/12/12 12:05:38;;;;;;;;;5.00;5.00;;;;;;;;5042230;28;9218;-74
2020/12/12 12:08:07;;;;;;;;;4.33;3.00;;;;;;;;5043575;28;9284;-73
2020/12/12 12:10:39;;;;;;;;;8.00;5.67;;;;;;;;5042434;28;9346;-72
2020/12/12 12:13:07;;;;;;;;;7.00;7.00;;;;;;;;5041883;28;9203;-73
2020/12/12 12:15:33;;;;;;;;;5.00;5.00;;;;;;;;5045048;28;9393;-73
2020/12/12 12:18:00;;;;;;;;;5.67;5.33;;;;;;;;5042649;28;9258;-73
2020/12/12 12:20:27;;;;;;;;;5.67;5.67;;;;;;;;5043142;28;9508;-73
2020/12/12 12:22:55;;;;;;;;;5.33;5.00;;;;;;;;5042321;28;9398;-73
2020/12/12 12:25:22;;;;;;;;;7.00;7.00;;;;;;;;5042440;28;9587;-73
2020/12/12 12:27:49;;;;;;;;;3.00;3.00;;;;;;;;5042723;28;9401;-73
2020/12/12 12:30:17;;;;;;;;;3.67;3.33;;;;;;;;5041233;28;9282;-71
2020/12/12 12:32:44;;;;;;;;;2.33;2.33;;;;;;;;5040912;28;9119;-71
2020/12/12 12:35:10;;;;;;;;;3.00;3.00;;;;;;;;5040204;28;9361;-72
2020/12/12 12:37:37;;;;;;;;;3.33;3.33;;;;;;;;5042368;28;9767;-71
2020/12/12 12:40:04;;;;;;;;;4.00;4.00;;;;;;;;5044626;28;9029;-71
2020/12/12 12:42:31;;;;;;;;;7.33;4.67;;;;;;;;5040669;28;9028;-73
2020/12/12 12:44:58;;;;;;;;;4.33;3.00;;;;;;;;5044287;28;9130;-73
2020/12/12 12:47:26;;;;;;;;;4.00;4.00;;;;;;;;5042717;28;9138;-73
2020/12/12 12:49:53;;;;;;;;;5.33;4.33;;;;;;;;5043487;28;9178;-73
2020/12/12 12:52:20;;;;;;;;;5.67;4.00;;;;;;;;5042514;28;8972;-73
2020/12/12 12:54:47;;;;;;;;;3.33;3.33;;;;;;;;5043308;28;9104;-73
2020/12/12 12:57:13;;;;;;;;;3.67;3.67;;;;;;;;5041104;28;9027;-73
2020/12/12 12:59:41;;;;;;;;;3.00;3.00;;;;;;;;5043016;28;9164;-73
2020/12/12 13:02:08;;;;;;;;;3.67;3.33;;;;;;;;5036840;28;9170;-74
2020/12/12 13:04:36;;;;;;;;;3.33;3.33;;;;;;;;5030690;28;9186;-72
2020/12/12 13:07:03;;;;;;;;;2.00;2.00;;;;;;;;5040225;28;9179;-73
2020/12/12 13:09:30;;;;;;;;;2.67;2.00;;;;;;;;5042734;28;9083;-73
2020/12/12 13:11:57;;;;;;;;;4.00;3.00;;;;;;;;5039704;28;9118;-73
2020/12/12 13:14:24;;;;;;;;;2.00;2.00;;;;;;;;5041116;28;9092;-73
2020/12/12 13:16:52;;;;;;;;;2.25;2.25;;;;;;;;5043277;28;8996;-73
2020/12/12 13:19:21;;;;;;;;;3.33;2.33;;;;;;;;5042880;28;8958;-72
2020/12/12 13:21:52;;;;;;;;;4.00;2.00;;;;;;;;5038627;28;8964;-72
2020/12/12 13:24:19;;;;;;;;;2.00;2.00;;;;;;;;5043416;28;9015;-73
2020/12/12 13:26:46;;;;;;;;;5.67;3.67;;;;;;;;5040740;28;9748;-72
2020/12/12 13:31:57;;;;;;;;;2.67;2.00;;;;;;;;5041994;28;8978;-73
2020/12/12 13:34:25;;;;;;;;;1.33;1.33;;;;;;;;5043459;28;9178;-73
2020/12/12 13:36:54;;;;;;;;;3.33;3.33;;;;;;;;5043420;28;9218;-73
2020/12/12 13:39:21;;;;;;;;;3.33;2.00;;;;;;;;5041758;28;9192;-73
2020/12/12 13:41:48;;;;;;;;;3.00;3.00;;;;;;;;5043171;28;9103;-73
2020/12/12 13:44:15;;;;;;;;;2.00;2.00;;;;;;;;5041983;28;9182;-73
2020/12/12 13:46:41;;;;;;;;;4.00;2.67;;;;;;;;5043345;28;9144;-73
2020/12/12 13:49:08;;;;;;;;;5.33;3.33;;;;;;;;5041552;28;9126;-73
2020/12/12 13:51:35;;;;;;;;;2.00;2.00;;;;;;;;5043630;28;9966;-73
2020/12/12 13:54:03;;;;;;;;;1.00;1.00;;;;;;;;5040944;28;9107;-73
2020/12/12 13:56:30;;;;;;;;;2.00;1.00;;;;;;;;5042752;28;8980;-72
2020/12/12 13:58:57;;;;;;;;;5.33;2.00;;;;;;;;5042552;28;9022;-73
2020/12/12 14:01:24;;;;;;;;;3.00;3.00;;;;;;;;5040865;28;9052;-72
2020/12/12 14:03:53;;;;;;;;;0.67;0.67;;;;;;;;5043207;28;9830;-73
2020/12/12 14:06:20;;;;;;;;;2.00;2.00;;;;;;;;5042203;28;9819;-73
2020/12/12 14:09:07;;;;;;;;;2.00;2.00;;;;;;;;5042251;28;10132;-73
2020/12/12 14:18:26;;;;;;;;;4.00;2.00;;;;;;;;5042436;28;9320;-73
2020/12/12 14:22:47;;;;;;;;;9.00;9.00;;;;;;;;5040567;28;9401;-74
2020/12/12 14:25:14;;;;;;;;;12.50;12.50;;;;;;;;5042672;28;9704;-73
2020/12/12 14:30:26;;;;;;;;;3.75;3.75;;;;;;;;5040900;28;9392;-73
2020/12/12 14:32:53;;;;;;;;;4.00;4.00;;;;;;;;5040372;28;9404;-73
2020/12/12 14:35:20;;;;;;;;;3.00;3.00;;;;;;;;5042623;28;9464;-73
2020/12/12 14:37:48;;;;;;;;;6.25;3.25;;;;;;;;5042687;28;9344;-73
2020/12/12 14:40:14;;;;;;;;;2.00;2.00;;;;;;;;5041429;28;9411;-73
2020/12/12 14:42:42;;;;;;;;;6.75;3.25;;;;;;;;5042095;28;9323;-73
2020/12/12 14:45:09;;;;;;;;;3.50;3.50;;;;;;;;5041853;28;9571;-73
2020/12/12 14:47:36;;;;;;;;;5.00;5.00;;;;;;;;5040888;28;10298;-74
2020/12/12 14:50:03;;;;;;;;;4.00;4.00;;;;;;;;5041151;28;9866;-74
2020/12/12 14:52:31;;;;;;;;;4.00;4.00;;;;;;;;5035396;28;9882;-74
2020/12/12 14:54:58;;;;;;;;;6.00;3.00;;;;;;;;5042670;28;9810;-74
2020/12/12 14:57:25;;;;;;;;;2.00;2.00;;;;;;;;5040591;28;9892;-74
2020/12/12 14:59:52;;;;;;;;;4.00;4.00;;;;;;;;5041057;28;9831;-74
2020/12/12 15:02:19;;;;;;;;;2.75;2.00;;;;;;;;5040115;28;10548;-74